Time;durP1;ratioP1;P1;durP2;ratioP2;P2;SDS_P1;SDS_P2;PMS_P1;PMS_P2;Temp;Humidity;BMP_temperature;BMP_pressure;BME280_temperature;BME280_humidity;BME280_pressure;Samples;Min_cycle;Max_cycle;Signal;HPM_P1;HPM_P2
2021/04/15 00:00:36;;;;;;;7.53;2.43;;;;;;;;;;4997980;28;20646;-69
2021/04/15 00:03:09;;;;;;;6.40;2.17;;;;;;;;;;4984436;28;20298;-69
2021/04/15 00:05:35;;;;;;;9.13;2.27;;;;;;;;;;4996268;28;20228;-69
2021/04/15 00:08:00;;;;;;;6.97;1.93;;;;;;;;;;4986173;28;20306;-68
2021/04/15 00:10:38;;;;;;;6.07;2.10;;;;;;;;;;4993115;28;20312;-69
2021/04/15 00:13:07;;;;;;;9.30;2.20;;;;;;;;;;4982290;28;20198;-69
2021/04/15 00:15:32;;;;;;;5.07;1.90;;;;;;;;;;4991655;28;20271;-69
2021/04/15 00:17:58;;;;;;;6.67;1.80;;;;;;;;;;4988580;28;20283;-69
2021/04/15 00:20:23;;;;;;;4.53;1.90;;;;;;;;;;4995026;28;20187;-69
2021/04/15 00:22:49;;;;;;;5.23;1.90;;;;;;;;;;4999215;28;20194;-69
2021/04/15 00:25:14;;;;;;;4.40;1.77;;;;;;;;;;4985738;28;20179;-70
2021/04/15 00:27:39;;;;;;;4.17;1.97;;;;;;;;;;4993406;28;20538;-69
2021/04/15 00:30:08;;;;;;;8.23;2.10;;;;;;;;;;4982144;28;20618;-69
2021/04/15 00:32:33;;;;;;;3.97;1.93;;;;;;;;;;4999551;28;20183;-69
2021/04/15 00:34:59;;;;;;;5.87;2.53;;;;;;;;;;4984334;28;20252;-69
2021/04/15 00:37:24;;;;;;;6.37;2.10;;;;;;;;;;4991189;28;20651;-69
2021/04/15 00:39:49;;;;;;;4.07;2.10;;;;;;;;;;4985407;28;20696;-69
2021/04/15 00:42:15;;;;;;;4.93;2.10;;;;;;;;;;4994046;28;20230;-70
2021/04/15 00:44:41;;;;;;;9.73;2.37;;;;;;;;;;4985099;28;20202;-69
2021/04/15 00:47:10;;;;;;;6.67;2.30;;;;;;;;;;5000875;28;20252;-70
2021/04/15 00:49:44;;;;;;;4.93;2.13;;;;;;;;;;4984983;28;23797;-69
2021/04/15 00:52:15;;;;;;;4.27;2.07;;;;;;;;;;5001936;28;20210;-69
2021/04/15 00:54:48;;;;;;;5.47;2.43;;;;;;;;;;4985325;28;20200;-70
2021/04/15 00:57:36;;;;;;;7.83;2.97;;;;;;;;;;4994603;28;20223;-68
2021/04/15 01:00:07;;;;;;;6.23;3.07;;;;;;;;;;4986464;28;20261;-70
2021/04/15 01:02:34;;;;;;;11.67;2.20;;;;;;;;;;4997594;28;20211;-69
2021/04/15 01:05:05;;;;;;;7.80;2.57;;;;;;;;;;5002550;28;20232;-69
2021/04/15 01:07:31;;;;;;;3.50;2.13;;;;;;;;;;4993355;28;20241;-69
2021/04/15 01:09:56;;;;;;;3.87;2.00;;;;;;;;;;4996523;28;20182;-69
2021/04/15 01:12:24;;;;;;;6.67;2.27;;;;;;;;;;4987097;28;20184;-69
2021/04/15 01:15:00;;;;;;;6.67;2.50;;;;;;;;;;4997952;28;20195;-69
2021/04/15 01:17:34;;;;;;;5.10;2.13;;;;;;;;;;4985255;28;20187;-69
2021/04/15 01:20:16;;;;;;;4.90;1.90;;;;;;;;;;4990138;28;20512;-69
2021/04/15 01:23:07;;;;;;;5.37;1.80;;;;;;;;;;4983520;28;20545;-69
2021/04/15 01:25:48;;;;;;;8.40;2.17;;;;;;;;;;4996128;28;20723;-69
2021/04/15 01:28:31;;;;;;;9.17;2.70;;;;;;;;;;4986487;28;20516;-69
2021/04/15 01:31:01;;;;;;;4.03;2.07;;;;;;;;;;4996075;28;20290;-69
2021/04/15 01:33:40;;;;;;;4.57;2.40;;;;;;;;;;4985395;28;20553;-69
2021/04/15 01:36:12;;;;;;;6.40;2.07;;;;;;;;;;4991998;28;20187;-69
2021/04/15 01:38:47;;;;;;;6.23;2.10;;;;;;;;;;4985259;28;20206;-69
2021/04/15 01:41:22;;;;;;;5.83;2.17;;;;;;;;;;5001196;28;20479;-69
2021/04/15 01:43:55;;;;;;;5.53;1.80;;;;;;;;;;4986021;28;20243;-70
2021/04/15 01:46:26;;;;;;;5.40;2.13;;;;;;;;;;4997129;28;20191;-70
2021/04/15 01:48:52;;;;;;;6.80;2.50;;;;;;;;;;4982908;28;20673;-70
2021/04/15 01:51:22;;;;;;;4.13;2.07;;;;;;;;;;4993588;28;20210;-70
2021/04/15 01:53:53;;;;;;;6.93;2.10;;;;;;;;;;4985164;28;20198;-70
2021/04/15 01:56:32;;;;;;;5.83;1.93;;;;;;;;;;4994008;28;20193;-70
2021/04/15 01:59:03;;;;;;;5.10;1.80;;;;;;;;;;4985901;28;20669;-70
2021/04/15 02:01:33;;;;;;;3.03;2.30;;;;;;;;;;4990410;28;20198;-69
2021/04/15 02:04:04;;;;;;;7.90;2.40;;;;;;;;;;4984554;28;20218;-70
2021/04/15 02:06:33;;;;;;;4.00;1.53;;;;;;;;;;5001701;28;20282;-70
2021/04/15 02:09:08;;;;;;;6.83;1.63;;;;;;;;;;4986212;28;20222;-70
2021/04/15 02:11:48;;;;;;;4.30;1.67;;;;;;;;;;4995089;28;20194;-69
2021/04/15 02:14:18;;;;;;;4.83;1.70;;;;;;;;;;4983654;28;20585;-69
2021/04/15 02:16:47;;;;;;;2.97;1.60;;;;;;;;;;5001239;28;20669;-69
2021/04/15 02:19:23;;;;;;;5.80;2.00;;;;;;;;;;4983391;28;20191;-69
2021/04/15 02:22:10;;;;;;;8.03;2.33;;;;;;;;;;4988170;28;20210;-70
2021/04/15 02:25:03;;;;;;;2.63;1.77;;;;;;;;;;4988035;28;20180;-70
2021/04/15 02:27:52;;;;;;;7.70;2.53;;;;;;;;;;4993621;28;20191;-69
2021/04/15 02:30:24;;;;;;;5.37;2.20;;;;;;;;;;4982353;28;20237;-69
2021/04/15 02:33:10;;;;;;;3.47;1.97;;;;;;;;;;4992817;28;20184;-69
2021/04/15 02:35:46;;;;;;;4.47;2.27;;;;;;;;;;4986895;28;20198;-69
2021/04/15 02:38:13;;;;;;;4.73;1.90;;;;;;;;;;4990890;28;20198;-69
2021/04/15 02:40:42;;;;;;;4.13;2.20;;;;;;;;;;4986269;28;20183;-69
2021/04/15 02:43:21;;;;;;;5.93;2.17;;;;;;;;;;4995223;28;20652;-69
2021/04/15 02:45:51;;;;;;;4.73;2.00;;;;;;;;;;4990372;28;20191;-69
2021/04/15 02:48:26;;;;;;;6.57;2.30;;;;;;;;;;4996110;28;20237;-69
2021/04/15 02:50:59;;;;;;;6.03;2.10;;;;;;;;;;4986497;28;20186;-70
2021/04/15 02:53:32;;;;;;;4.90;2.03;;;;;;;;;;4996236;28;20214;-70
2021/04/15 02:56:04;;;;;;;8.57;2.20;;;;;;;;;;4997959;28;20571;-70
2021/04/15 02:58:37;;;;;;;8.80;2.57;;;;;;;;;;4995454;28;20310;-70
2021/04/15 03:01:04;;;;;;;5.67;2.40;;;;;;;;;;4998541;28;20710;-70
2021/04/15 03:03:35;;;;;;;4.43;2.13;;;;;;;;;;4986545;28;20243;-70
2021/04/15 03:06:11;;;;;;;4.87;2.20;;;;;;;;;;5000302;28;20191;-70
2021/04/15 03:08:39;;;;;;;5.53;2.23;;;;;;;;;;4984616;28;20203;-70
2021/04/15 03:11:10;;;;;;;4.03;2.40;;;;;;;;;;4995466;28;20326;-70
2021/04/15 03:13:44;;;;;;;3.60;1.97;;;;;;;;;;4984686;28;20180;-70
2021/04/15 03:16:09;;;;;;;6.90;2.60;;;;;;;;;;4993557;28;20215;-70
2021/04/15 03:18:47;;;;;;;5.57;2.53;;;;;;;;;;4989429;28;20289;-70
2021/04/15 03:21:19;;;;;;;5.97;2.70;;;;;;;;;;5008704;28;20186;-70
2021/04/15 03:24:15;;;;;;;5.83;3.03;;;;;;;;;;4989176;28;20278;-70
2021/04/15 03:26:46;;;;;;;7.43;2.97;;;;;;;;;;4993849;28;20195;-70
2021/04/15 03:29:25;;;;;;;7.27;2.90;;;;;;;;;;4986999;28;20682;-70
2021/04/15 03:32:12;;;;;;;8.60;3.07;;;;;;;;;;4996334;28;20534;-71
2021/04/15 03:34:57;;;;;;;7.70;2.80;;;;;;;;;;4982351;28;20694;-70
2021/04/15 03:37:34;;;;;;;7.13;2.77;;;;;;;;;;4995526;28;21211;-70
2021/04/15 03:40:00;;;;;;;6.57;3.37;;;;;;;;;;4987106;28;20669;-69
2021/04/15 03:42:47;;;;;;;8.73;3.13;;;;;;;;;;4997072;28;20655;-70
2021/04/15 03:45:23;;;;;;;8.67;3.60;;;;;;;;;;4985908;28;20208;-70
2021/04/15 03:48:11;;;;;;;7.93;3.30;;;;;;;;;;4998088;28;20260;-70
2021/04/15 03:50:49;;;;;;;9.07;3.30;;;;;;;;;;4996202;28;20183;-70
2021/04/15 03:53:24;;;;;;;5.07;3.03;;;;;;;;;;4993729;28;20342;-69
2021/04/15 03:55:56;;;;;;;3.90;2.90;;;;;;;;;;4993710;28;20186;-69
2021/04/15 03:58:27;;;;;;;5.13;2.90;;;;;;;;;;4992157;28;20548;-69
2021/04/15 04:00:56;;;;;;;9.43;3.47;;;;;;;;;;4986421;28;20281;-69
2021/04/15 04:03:25;;;;;;;6.93;3.23;;;;;;;;;;4992079;28;20214;-69
2021/04/15 04:05:59;;;;;;;5.67;3.00;;;;;;;;;;4987854;28;20786;-69
2021/04/15 04:08:48;;;;;;;6.30;3.20;;;;;;;;;;4989805;28;20207;-69
2021/04/15 04:11:17;;;;;;;7.37;4.00;;;;;;;;;;4986589;28;20305;-69
2021/04/15 04:14:05;;;;;;;4.83;3.27;;;;;;;;;;4994325;28;20224;-69
2021/04/15 04:16:42;;;;;;;9.57;3.93;;;;;;;;;;4987497;28;20288;-69
2021/04/15 04:19:37;;;;;;;14.20;4.07;;;;;;;;;;4993880;28;20308;-69
2021/04/15 04:22:07;;;;;;;12.50;5.30;;;;;;;;;;4983405;28;20198;-69
2021/04/15 04:24:39;;;;;;;9.57;3.57;;;;;;;;;;4998816;28;20186;-69
2021/04/15 04:27:27;;;;;;;8.80;4.17;;;;;;;;;;4985828;28;20246;-69
2021/04/15 04:30:00;;;;;;;7.37;3.27;;;;;;;;;;4996942;28;20230;-70
2021/04/15 04:32:28;;;;;;;6.47;4.27;;;;;;;;;;4984128;28;20575;-70
2021/04/15 04:34:57;;;;;;;10.43;4.27;;;;;;;;;;5000175;28;20296;-70
2021/04/15 04:37:47;;;;;;;6.70;3.97;;;;;;;;;;4988344;28;20190;-70
2021/04/15 04:40:18;;;;;;;9.57;4.00;;;;;;;;;;4998972;28;20231;-70
2021/04/15 04:42:59;;;;;;;11.53;3.47;;;;;;;;;;4984011;28;20296;-71
2021/04/15 04:45:25;;;;;;;7.47;3.60;;;;;;;;;;4990111;28;20194;-70
2021/04/15 04:48:20;;;;;;;5.80;3.50;;;;;;;;;;4984874;28;20222;-70
2021/04/15 04:50:59;;;;;;;8.10;3.43;;;;;;;;;;4991917;28;20940;-71
2021/04/15 04:53:28;;;;;;;6.43;3.40;;;;;;;;;;4988580;28;20233;-70
2021/04/15 04:55:57;;;;;;;7.50;3.50;;;;;;;;;;4991567;28;20203;-70
2021/04/15 04:58:22;;;;;;;11.07;5.77;;;;;;;;;;4984152;28;20190;-72
2021/04/15 05:00:54;;;;;;;7.57;4.03;;;;;;;;;;4995444;28;20272;-69
2021/04/15 05:03:23;;;;;;;9.73;4.33;;;;;;;;;;4989296;28;20206;-69
2021/04/15 05:05:49;;;;;;;9.20;4.40;;;;;;;;;;4994890;28;20190;-69
2021/04/15 05:08:22;;;;;;;8.93;4.50;;;;;;;;;;4978283;28;20237;-70
2021/04/15 05:10:52;;;;;;;7.90;4.50;;;;;;;;;;4991426;28;20184;-70
2021/04/15 05:13:24;;;;;;;9.43;4.30;;;;;;;;;;4986337;28;20692;-70
2021/04/15 05:15:50;;;;;;;11.20;5.00;;;;;;;;;;4992390;28;20199;-70
2021/04/15 05:18:17;;;;;;;9.10;5.00;;;;;;;;;;4986614;28;20228;-70
2021/04/15 05:20:43;;;;;;;10.13;5.43;;;;;;;;;;4994551;28;20666;-69
2021/04/15 05:23:27;;;;;;;8.57;5.17;;;;;;;;;;4985142;28;20206;-72
2021/04/15 05:26:13;;;;;;;8.40;4.63;;;;;;;;;;4991076;28;20187;-69
2021/04/15 05:28:40;;;;;;;9.10;3.97;;;;;;;;;;4987174;28;20214;-70
2021/04/15 05:31:09;;;;;;;7.83;3.70;;;;;;;;;;4998515;28;20190;-70
2021/04/15 05:33:36;;;;;;;8.43;3.70;;;;;;;;;;4994716;28;20631;-70
2021/04/15 05:36:20;;;;;;;6.90;4.37;;;;;;;;;;4987665;28;20262;-70
2021/04/15 05:38:48;;;;;;;6.53;4.07;;;;;;;;;;4992764;28;20179;-70
2021/04/15 05:41:33;;;;;;;8.63;4.07;;;;;;;;;;4987752;28;20597;-70
2021/04/15 05:44:04;;;;;;;7.33;3.93;;;;;;;;;;4992915;28;20242;-69
2021/04/15 05:46:41;;;;;;;8.10;4.33;;;;;;;;;;4983593;28;20654;-70
2021/04/15 05:49:13;;;;;;;14.57;4.50;;;;;;;;;;4995704;28;20353;-71
2021/04/15 05:51:44;;;;;;;6.33;3.70;;;;;;;;;;5000277;28;20718;-70
2021/04/15 05:54:13;;;;;;;9.13;3.97;;;;;;;;;;4999894;28;20217;-70
2021/04/15 05:56:51;;;;;;;11.33;4.00;;;;;;;;;;4985727;28;20182;-70
2021/04/15 05:59:25;;;;;;;11.57;4.47;;;;;;;;;;4991029;28;20171;-70
2021/04/15 06:02:27;;;;;;;9.83;4.67;;;;;;;;;;4985618;28;20191;-70
2021/04/15 06:05:11;;;;;;;11.00;4.73;;;;;;;;;;4993725;28;20557;-70
2021/04/15 06:07:38;;;;;;;8.27;4.83;;;;;;;;;;4984496;28;20610;-70
2021/04/15 06:10:07;;;;;;;11.30;5.40;;;;;;;;;;4999039;28;20214;-71
2021/04/15 06:12:58;;;;;;;9.90;6.17;;;;;;;;;;4987031;28;20191;-71
2021/04/15 06:15:37;;;;;;;8.77;5.20;;;;;;;;;;5001111;28;20195;-70
2021/04/15 06:18:32;;;;;;;11.00;5.30;;;;;;;;;;4986360;28;20198;-70
2021/04/15 06:21:01;;;;;;;9.23;5.83;;;;;;;;;;4989682;28;20191;-71
2021/04/15 06:23:36;;;;;;;11.40;5.67;;;;;;;;;;4986822;28;20601;-71
2021/04/15 06:26:02;;;;;;;10.07;6.87;;;;;;;;;;4991469;28;20191;-71
2021/04/15 06:28:32;;;;;;;9.70;6.00;;;;;;;;;;4983393;28;20200;-71
2021/04/15 06:31:22;;;;;;;12.03;6.00;;;;;;;;;;4302489;28;10000733;-70
2021/04/15 06:33:48;;;;;;;6.07;4.63;;;;;;;;;;4986249;28;20187;-70
2021/04/15 06:36:43;;;;;;;10.03;5.67;;;;;;;;;;4988044;28;20248;-70
2021/04/15 06:39:20;;;;;;;14.77;5.43;;;;;;;;;;4988434;28;20202;-70
2021/04/15 06:42:10;;;;;;;6.57;4.80;;;;;;;;;;4988346;28;20223;-71
2021/04/15 06:44:43;;;;;;;7.97;4.53;;;;;;;;;;4987848;28;20191;-71
2021/04/15 06:47:50;;;;;;;6.63;5.00;;;;;;;;;;4987582;28;20206;-71
2021/04/15 06:50:28;;;;;;;7.90;5.20;;;;;;;;;;4988548;28;20192;-71
2021/04/15 06:53:03;;;;;;;9.60;5.07;;;;;;;;;;4980311;28;20180;-69
2021/04/15 06:55:56;;;;;;;8.40;5.53;;;;;;;;;;4991718;28;20641;-69
2021/04/15 06:58:59;;;;;;;8.77;5.30;;;;;;;;;;4977793;28;20558;-70
2021/04/15 07:01:33;;;;;;;6.83;5.00;;;;;;;;;;4986571;28;20236;-70
2021/04/15 07:04:13;;;;;;;9.77;5.50;;;;;;;;;;4978572;28;20214;-70
2021/04/15 07:06:45;;;;;;;8.13;5.10;;;;;;;;;;4985948;28;20190;-70
2021/04/15 07:09:29;;;;;;;13.77;7.13;;;;;;;;;;4976343;28;20333;-70
2021/04/15 07:11:54;;;;;;;10.80;7.37;;;;;;;;;;4990083;28;20195;-70
2021/04/15 07:14:48;;;;;;;10.73;7.93;;;;;;;;;;4986740;28;20242;-71
2021/04/15 07:17:41;;;;;;;10.30;7.50;;;;;;;;;;4987148;28;20184;-70
2021/04/15 07:20:35;;;;;;;12.13;7.63;;;;;;;;;;4980971;28;20214;-70
2021/04/15 07:23:19;;;;;;;13.90;7.03;;;;;;;;;;4993907;28;20316;-70
2021/04/15 07:26:22;;;;;;;11.50;6.77;;;;;;;;;;4987978;28;20566;-71
2021/04/15 07:29:33;;;;;;;9.60;6.30;;;;;;;;;;5000827;28;20291;-69
2021/04/15 07:32:15;;;;;;;8.67;5.80;;;;;;;;;;4991348;28;20349;-69
2021/04/15 07:34:58;;;;;;;10.07;5.80;;;;;;;;;;4996514;28;20651;-68
2021/04/15 07:37:47;;;;;;;15.90;7.67;;;;;;;;;;4997586;28;20192;-70
2021/04/15 07:40:18;;;;;;;10.63;6.23;;;;;;;;;;4992576;28;20659;-70
2021/04/15 07:42:54;;;;;;;12.07;5.20;;;;;;;;;;4999370;28;20226;-70
2021/04/15 07:45:28;;;;;;;14.70;5.60;;;;;;;;;;4995789;28;20210;-69
2021/04/15 07:48:18;;;;;;;7.27;4.83;;;;;;;;;;4995961;28;20208;-69
2021/04/15 07:51:21;;;;;;;8.38;4.40;;;;;;;;;;4987185;28;20194;-70
2021/04/15 07:54:30;;;;;;;9.57;3.72;;;;;;;;;;4997541;28;20190;-70
2021/04/15 07:57:24;;;;;;;8.48;4.60;;;;;;;;;;4989305;28;20191;-69
2021/04/15 08:00:11;;;;;;;9.13;4.60;;;;;;;;;;5004433;28;20191;-69
2021/04/15 08:03:01;;;;;;;7.10;3.13;;;;;;;;;;4986255;28;20211;-70
2021/04/15 08:05:33;;;;;;;5.03;2.57;;;;;;;;;;4991797;28;20192;-70
2021/04/15 08:08:14;;;;;;;5.63;2.50;;;;;;;;;;4988220;28;20207;-70
2021/04/15 08:11:14;;;;;;;7.67;2.63;;;;;;;;;;4994760;28;20195;-69
2021/04/15 08:14:17;;;;;;;4.73;2.60;;;;;;;;;;4989371;28;20278;-69
2021/04/15 08:17:11;;;;;;;4.70;2.07;;;;;;;;;;4996044;28;20215;-69
2021/04/15 08:20:14;;;;;;;8.07;2.60;;;;;;;;;;4997759;28;20176;-69
2021/04/15 08:23:15;;;;;;;5.50;2.70;;;;;;;;;;4986448;28;20699;-69
2021/04/15 08:26:01;;;;;;;6.27;2.40;;;;;;;;;;4996715;28;20198;-70
2021/04/15 08:28:54;;;;;;;5.47;2.33;;;;;;;;;;4988454;28;20754;-69
2021/04/15 08:31:48;;;;;;;10.70;3.90;;;;;;;;;;4994360;28;20307;-69
2021/04/15 08:34:28;;;;;;;6.63;2.23;;;;;;;;;;4984982;28;20330;-69
2021/04/15 08:37:21;;;;;;;5.70;2.30;;;;;;;;;;4989519;28;20210;-70
2021/04/15 08:40:07;;;;;;;7.07;2.30;;;;;;;;;;4989647;28;20187;-69
2021/04/15 08:42:44;;;;;;;8.27;2.40;;;;;;;;;;4994157;28;20604;-69
2021/04/15 08:45:27;;;;;;;8.20;2.53;;;;;;;;;;4984767;28;20199;-69
2021/04/15 08:48:17;;;;;;;3.50;1.57;;;;;;;;;;4994188;28;20548;-69
2021/04/15 08:51:09;;;;;;;7.07;2.90;;;;;;;;;;4987306;28;20203;-69
2021/04/15 08:54:00;;;;;;;9.73;2.90;;;;;;;;;;4995005;28;20195;-69
2021/04/15 08:56:31;;;;;;;5.53;2.47;;;;;;;;;;4996427;28;20209;-69
2021/04/15 08:59:15;;;;;;;5.80;2.60;;;;;;;;;;4993563;28;20622;-69
2021/04/15 09:01:53;;;;;;;6.97;2.40;;;;;;;;;;4996372;28;20198;-69
2021/04/15 09:04:26;;;;;;;5.53;2.47;;;;;;;;;;4992134;28;20210;-69
2021/04/15 09:07:13;;;;;;;6.47;2.47;;;;;;;;;;4987928;28;20187;-68
2021/04/15 09:10:00;;;;;;;7.47;2.70;;;;;;;;;;4993306;28;20211;-69
2021/04/15 09:12:57;;;;;;;4.87;2.23;;;;;;;;;;4994966;28;20187;-69
2021/04/15 09:15:30;;;;;;;5.73;2.47;;;;;;;;;;4982393;28;21336;-70
2021/04/15 09:18:05;;;;;;;6.70;2.37;;;;;;;;;;4998731;28;20266;-69
2021/04/15 09:20:39;;;;;;;4.93;2.03;;;;;;;;;;4982667;28;21075;-69
2021/04/15 09:23:23;;;;;;;5.83;1.97;;;;;;;;;;4988640;28;20186;-69
2021/04/15 09:26:15;;;;;;;4.30;2.07;;;;;;;;;;4987809;28;20187;-69
2021/04/15 09:28:52;;;;;;;4.73;1.43;;;;;;;;;;4999946;28;20300;-69
2021/04/15 09:31:21;;;;;;;4.50;1.93;;;;;;;;;;4983492;28;20195;-69
2021/04/15 09:33:59;;;;;;;8.00;2.60;;;;;;;;;;4989703;28;20195;-69
2021/04/15 09:36:37;;;;;;;3.97;1.60;;;;;;;;;;4987052;28;20198;-69
2021/04/15 09:39:21;;;;;;;4.77;1.47;;;;;;;;;;4999459;28;20218;-69
2021/04/15 09:42:13;;;;;;;5.27;1.73;;;;;;;;;;4991488;28;20289;-69
2021/04/15 09:44:42;;;;;;;6.87;1.70;;;;;;;;;;4992281;28;20241;-69
2021/04/15 09:47:15;;;;;;;5.20;1.63;;;;;;;;;;4983231;28;20227;-69
2021/04/15 09:50:11;;;;;;;3.57;1.50;;;;;;;;;;4993239;28;20310;-69
2021/04/15 09:52:55;;;;;;;6.00;1.73;;;;;;;;;;4984121;28;20226;-69
2021/04/15 09:56:17;;;;;;;3.80;1.60;;;;;;;;;;4991690;28;20187;-69
2021/04/15 09:59:12;;;;;;;3.90;1.37;;;;;;;;;;4933088;29;20272;-69
2021/04/15 10:01:46;;;;;;;5.37;1.50;;;;;;;;;;4941991;29;20296;-69
2021/04/15 10:04:18;;;;;;;5.67;1.37;;;;;;;;;;4974860;28;20289;-69
2021/04/15 10:06:50;;;;;;;4.13;1.52;;;;;;;;;;4993172;28;20608;-69
2021/04/15 10:09:18;;;;;;;5.45;1.60;;;;;;;;;;4983784;28;20211;-69
2021/04/15 10:12:14;;;;;;;3.83;1.23;;;;;;;;;;4992503;28;20179;-69
2021/04/15 10:15:15;;;;;;;3.17;1.02;;;;;;;;;;4986655;28;20270;-69
2021/04/15 10:18:11;;;;;;;2.90;1.10;;;;;;;;;;4991478;28;20179;-69
2021/04/15 10:21:01;;;;;;;3.53;1.20;;;;;;;;;;4993544;28;20186;-69
2021/04/15 10:23:46;;;;;;;5.50;1.10;;;;;;;;;;4996302;28;20183;-69
2021/04/15 10:26:43;;;;;;;3.03;0.90;;;;;;;;;;4993725;28;20254;-70
2021/04/15 10:29:47;;;;;;;3.57;1.13;;;;;;;;;;4985232;28;20206;-70
2021/04/15 10:32:28;;;;;;;3.85;1.10;;;;;;;;;;4991574;28;20191;-69
2021/04/15 10:35:25;;;;;;;3.83;0.93;;;;;;;;;;4983233;28;20552;-69
2021/04/15 10:38:05;;;;;;;6.30;1.65;;;;;;;;;;5000475;28;20224;-70
2021/04/15 10:40:51;;;;;;;6.05;1.45;;;;;;;;;;4985776;28;20206;-70
2021/04/15 10:43:38;;;;;;;5.22;1.15;;;;;;;;;;4991611;28;20231;-70
2021/04/15 10:46:45;;;;;;;5.65;1.90;;;;;;;;;;4984157;28;20622;-69
2021/04/15 10:49:44;;;;;;;4.97;1.98;;;;;;;;;;5000137;28;20230;-69
2021/04/15 10:52:45;;;;;;;4.10;1.90;;;;;;;;;;4994400;28;20214;-69
2021/04/15 10:55:41;;;;;;;6.60;1.77;;;;;;;;;;4985965;28;24690;-70
2021/04/15 10:58:45;;;;;;;4.28;1.52;;;;;;;;;;4988587;28;20850;-69
2021/04/15 11:01:39;;;;;;;7.60;1.92;;;;;;;;;;4989059;28;20202;-69
2021/04/15 11:04:10;;;;;;;4.32;1.80;;;;;;;;;;4996222;28;20211;-70
2021/04/15 11:06:50;;;;;;;5.78;1.90;;;;;;;;;;4986504;28;20195;-70
2021/04/15 11:09:21;;;;;;;4.38;1.80;;;;;;;;;;4993892;28;20280;-70
2021/04/15 11:12:13;;;;;;;5.07;1.70;;;;;;;;;;4992330;28;20758;-70
2021/04/15 11:14:43;;;;;;;6.32;1.70;;;;;;;;;;4989604;28;20205;-70
2021/04/15 11:17:29;;;;;;;4.95;1.83;;;;;;;;;;4984936;28;20222;-70
2021/04/15 11:20:19;;;;;;;5.45;1.90;;;;;;;;;;4997025;28;20186;-70
2021/04/15 11:22:59;;;;;;;4.47;2.00;;;;;;;;;;4994265;28;20328;-70
2021/04/15 11:25:28;;;;;;;5.20;2.50;;;;;;;;;;4994140;28;20749;-70
2021/04/15 11:27:55;;;;;;;4.50;2.13;;;;;;;;;;4987193;28;20647;-70
2021/04/15 11:30:39;;;;;;;4.53;2.20;;;;;;;;;;4993873;28;20179;-70
2021/04/15 11:33:05;;;;;;;7.32;2.55;;;;;;;;;;4985399;28;20266;-70
2021/04/15 11:35:32;;;;;;;4.78;2.40;;;;;;;;;;4995858;28;20245;-70
2021/04/15 11:38:15;;;;;;;3.58;1.90;;;;;;;;;;4982827;28;20266;-70
2021/04/15 11:40:50;;;;;;;5.55;2.40;;;;;;;;;;4997872;28;20190;-70
2021/04/15 11:43:24;;;;;;;5.28;2.20;;;;;;;;;;4991859;28;20218;-70
2021/04/15 11:45:50;;;;;;;6.55;2.40;;;;;;;;;;4997505;28;20622;-70
2021/04/15 11:48:29;;;;;;;5.75;2.63;;;;;;;;;;4987600;28;20210;-70
2021/04/15 11:51:32;;;;;;;5.63;2.72;;;;;;;;;;5004925;28;20240;-70
2021/04/15 11:53:59;;;;;;;6.35;2.50;;;;;;;;;;4982996;28;20207;-70
2021/04/15 11:56:24;;;;;;;6.45;2.45;;;;;;;;;;4994881;28;20183;-70
2021/04/15 11:58:54;;;;;;;6.70;2.88;;;;;;;;;;4985978;28;20186;-70
2021/04/15 12:01:28;;;;;;;7.68;2.80;;;;;;;;;;4991934;28;20180;-70
2021/04/15 12:04:05;;;;;;;4.65;2.53;;;;;;;;;;4985280;28;20223;-70
2021/04/15 12:06:40;;;;;;;8.13;2.60;;;;;;;;;;4995831;28;20241;-69
2021/04/15 12:09:11;;;;;;;8.75;3.00;;;;;;;;;;4983788;28;20627;-70
2021/04/15 12:11:46;;;;;;;6.30;2.80;;;;;;;;;;4998421;28;20187;-69
2021/04/15 12:14:16;;;;;;;7.78;3.15;;;;;;;;;;4985194;28;20187;-69
2021/04/15 12:16:53;;;;;;;6.65;3.00;;;;;;;;;;4997199;28;20194;-69
2021/04/15 12:19:34;;;;;;;7.68;2.83;;;;;;;;;;4986923;28;20580;-70
2021/04/15 12:22:18;;;;;;;6.38;2.80;;;;;;;;;;4997559;28;20186;-70
2021/04/15 12:24:49;;;;;;;5.65;2.70;;;;;;;;;;4989873;28;20238;-69
2021/04/15 12:27:25;;;;;;;6.82;2.45;;;;;;;;;;4990296;28;20194;-70
2021/04/15 12:30:11;;;;;;;7.47;2.85;;;;;;;;;;4988501;28;20206;-69
2021/04/15 12:32:36;;;;;;;7.25;2.97;;;;;;;;;;5002124;28;20202;-70
2021/04/15 12:35:02;;;;;;;8.10;2.88;;;;;;;;;;4989324;28;20643;-70
2021/04/15 12:37:36;;;;;;;8.02;3.00;;;;;;;;;;4994410;28;20203;-69
2021/04/15 12:40:01;;;;;;;6.47;2.50;;;;;;;;;;4999221;28;20197;-69
2021/04/15 12:42:27;;;;;;;6.20;3.15;;;;;;;;;;4993504;28;20230;-69
2021/04/15 12:44:55;;;;;;;4.57;2.78;;;;;;;;;;5003025;28;20190;-70
2021/04/15 12:47:22;;;;;;;6.00;2.50;;;;;;;;;;4989044;28;20187;-69
2021/04/15 12:49:48;;;;;;;5.10;2.80;;;;;;;;;;4994749;28;20221;-70
2021/04/15 12:52:14;;;;;;;4.95;2.63;;;;;;;;;;4987082;28;20187;-69
2021/04/15 12:54:42;;;;;;;5.72;2.60;;;;;;;;;;4994092;28;20302;-69
2021/04/15 12:57:11;;;;;;;5.25;2.92;;;;;;;;;;4983679;28;20195;-69
2021/04/15 12:59:41;;;;;;;4.03;2.33;;;;;;;;;;4992752;28;20224;-70
2021/04/15 13:02:18;;;;;;;5.28;2.47;;;;;;;;;;4985155;28;20657;-69
2021/04/15 13:04:52;;;;;;;5.97;2.28;;;;;;;;;;4994798;28;20191;-70
2021/04/15 13:07:21;;;;;;;5.43;2.10;;;;;;;;;;4985206;28;20194;-70
2021/04/15 13:09:49;;;;;;;7.47;2.40;;;;;;;;;;5001320;28;20678;-70
2021/04/15 13:12:21;;;;;;;4.10;2.60;;;;;;;;;;4987562;28;20207;-70
2021/04/15 13:14:47;;;;;;;6.00;2.75;;;;;;;;;;4990090;28;20268;-69
2021/04/15 13:17:35;;;;;;;5.63;2.50;;;;;;;;;;4987194;28;20195;-69
2021/04/15 13:20:07;;;;;;;3.58;2.30;;;;;;;;;;4990910;28;20218;-70
2021/04/15 13:22:37;;;;;;;4.47;2.33;;;;;;;;;;4985245;28;20202;-69
2021/04/15 13:25:02;;;;;;;4.43;2.58;;;;;;;;;;4992679;28;20305;-69
2021/04/15 13:30:20;;;;;;;4.50;2.38;;;;;;;;;;4985177;28;20580;-70
2021/04/15 13:33:39;;;;;;;5.88;2.25;;;;;;;;;;4993429;28;20257;-69
2021/04/15 13:36:04;;;;;;;7.32;2.50;;;;;;;;;;4990209;28;20199;-70
2021/04/15 13:38:31;;;;;;;4.88;2.00;;;;;;;;;;4981132;28;20241;-69
2021/04/15 13:41:22;;;;;;;4.30;2.20;;;;;;;;;;4988720;28;20227;-70
2021/04/15 13:43:52;;;;;;;5.70;2.60;;;;;;;;;;4985345;28;20222;-70
2021/04/15 13:48:55;;;;;;;5.07;2.20;;;;;;;;;;4981366;28;20660;-70
2021/04/15 13:51:28;;;;;;;2.75;1.73;;;;;;;;;;4992917;28;20600;-70
2021/04/15 13:54:23;;;;;;;3.63;1.90;;;;;;;;;;4987719;28;20180;-71
2021/04/15 13:56:59;;;;;;;3.83;1.67;;;;;;;;;;4990236;28;20194;-70
2021/04/15 13:59:31;;;;;;;4.50;2.20;;;;;;;;;;4983673;28;20193;-70
2021/04/15 14:02:17;;;;;;;4.07;1.98;;;;;;;;;;4990586;28;20532;-69
2021/04/15 14:10:17;;;;;;;2.55;1.67;;;;;;;;;;4982631;28;20240;-69
2021/04/15 14:12:54;;;;;;;6.40;1.77;;;;;;;;;;4991948;28;20682;-69
2021/04/15 14:15:33;;;;;;;4.28;1.80;;;;;;;;;;4987057;28;21504;-70
2021/04/15 14:18:07;;;;;;;2.85;1.60;;;;;;;;;;4994277;28;20274;-69
2021/04/15 14:20:45;;;;;;;4.28;1.85;;;;;;;;;;4985313;28;20198;-69
2021/04/15 14:23:19;;;;;;;4.43;1.92;;;;;;;;;;4987379;28;20266;-70
2021/04/15 14:25:46;;;;;;;2.88;1.83;;;;;;;;;;4293397;28;10000961;-70
2021/04/15 14:28:16;;;;;;;5.25;2.08;;;;;;;;;;4986391;28;20679;-70
2021/04/15 14:30:42;;;;;;;3.05;1.73;;;;;;;;;;4982159;28;20274;-70
2021/04/15 14:33:20;;;;;;;2.85;1.73;;;;;;;;;;4980308;28;20192;-70
2021/04/15 14:35:46;;;;;;;2.75;1.60;;;;;;;;;;4988625;28;20655;-69
2021/04/15 14:38:20;;;;;;;3.45;1.95;;;;;;;;;;4979117;28;20703;-70
2021/04/15 14:40:45;;;;;;;4.53;1.88;;;;;;;;;;4990817;28;20195;-69
2021/04/15 14:43:19;;;;;;;6.95;1.85;;;;;;;;;;4979585;28;20721;-69
2021/04/15 14:45:45;;;;;;;3.25;1.67;;;;;;;;;;4994999;28;20249;-69
2021/04/15 14:48:17;;;;;;;2.33;1.45;;;;;;;;;;4980203;28;20219;-69
2021/04/15 14:50:43;;;;;;;3.78;1.70;;;;;;;;;;4988896;28;20630;-70
2021/04/15 14:53:25;;;;;;;3.42;1.60;;;;;;;;;;4985839;28;20198;-70
2021/04/15 14:56:28;;;;;;;7.47;1.67;;;;;;;;;;4989686;28;20309;-70
2021/04/15 14:59:22;;;;;;;3.10;1.80;;;;;;;;;;4928011;28;20196;-70
2021/04/15 15:01:48;;;;;;;2.65;1.80;;;;;;;;;;4977853;28;20191;-71
2021/04/15 15:04:16;;;;;;;3.20;1.80;;;;;;;;;;4983153;28;20235;-70
2021/04/15 15:06:43;;;;;;;5.10;1.85;;;;;;;;;;4993169;28;20230;-70
2021/04/15 15:09:13;;;;;;;2.58;1.70;;;;;;;;;;4987550;28;20211;-70
2021/04/15 15:11:38;;;;;;;2.20;1.60;;;;;;;;;;4996309;28;20468;-69
2021/04/15 15:14:07;;;;;;;2.92;1.70;;;;;;;;;;4987467;28;20193;-70
2021/04/15 15:16:34;;;;;;;2.40;1.45;;;;;;;;;;4993712;28;20195;-69
2021/04/15 15:19:01;;;;;;;3.70;1.60;;;;;;;;;;4986161;28;20192;-69
2021/04/15 15:21:41;;;;;;;5.55;1.65;;;;;;;;;;4995375;28;20207;-69
2021/04/15 15:24:12;;;;;;;4.82;1.55;;;;;;;;;;4988948;28;20186;-70
2021/04/15 15:26:47;;;;;;;2.03;1.40;;;;;;;;;;4996576;28;20642;-70
2021/04/15 15:29:28;;;;;;;4.75;1.92;;;;;;;;;;4990943;28;20222;-70
2021/04/15 15:31:55;;;;;;;2.88;1.63;;;;;;;;;;4994324;28;20195;-69
2021/04/15 15:34:33;;;;;;;4.18;1.70;;;;;;;;;;4982769;28;20183;-71
2021/04/15 15:37:19;;;;;;;5.30;1.85;;;;;;;;;;4992579;28;20631;-70
2021/04/15 15:39:46;;;;;;;3.75;2.00;;;;;;;;;;4985874;28;20179;-70
2021/04/15 15:42:48;;;;;;;4.50;2.13;;;;;;;;;;4998144;28;20743;-70
2021/04/15 15:45:29;;;;;;;3.15;1.42;;;;;;;;;;4985754;28;20187;-70
2021/04/15 15:47:55;;;;;;;6.00;1.75;;;;;;;;;;4994793;28;20592;-69
2021/04/15 15:50:55;;;;;;;2.47;1.67;;;;;;;;;;4984891;28;20225;-70
2021/04/15 15:53:52;;;;;;;4.65;2.00;;;;;;;;;;4973668;28;20207;-70